Terminal Aerodrome Forecast
Issued by NWS

Home | Current Version | Previous Version | Text Only | Print | Product List | Glossary On
Versions: 1 2 3 4 5 6 7 8 9 10 11 12 13 14 15 16 17 18 19 20 21 22
000
FTUS41 KBTV 032334
TAFSLK
TAF
KSLK 032334Z 0400/0424 30009KT 3SM -SHSN OVC020
      TEMPO 0400/0402 2SM -SHSN BKN015 OVC020
     FM040200 31009KT 5SM -SHSN OVC025
     FM040600 32007KT P6SM -SHSN OVC020
     FM041600 29005KT P6SM BKN025
     FM042200 00000KT P6SM BKN040=

USA.gov is the U.S. government's official web portal to all federal, state and local government web resources and services.